createdAt,value
2019-05-14T00:01:26.098Z,2.90
2019-05-14T00:03:53.596Z,3.00
2019-05-14T00:06:22.068Z,3.20
2019-05-14T00:08:52.208Z,3.07
2019-05-14T00:11:21.784Z,3.30
2019-05-14T00:13:49.197Z,3.00
2019-05-14T00:16:16.913Z,2.90
2019-05-14T00:18:44.632Z,3.10
2019-05-14T00:21:12.463Z,2.80
2019-05-14T00:23:42.102Z,3.10
2019-05-14T00:26:11.982Z,3.40
2019-05-14T00:28:42.290Z,2.87
2019-05-14T00:31:11.986Z,2.90
2019-05-14T00:33:41.764Z,2.80
2019-05-14T00:36:11.134Z,2.93
2019-05-14T00:38:38.601Z,3.30
2019-05-14T00:41:06.162Z,2.80
2019-05-14T00:43:33.856Z,2.90
2019-05-14T00:46:01.833Z,2.67
2019-05-14T00:48:31.767Z,2.90
2019-05-14T00:51:01.965Z,2.67
2019-05-14T00:53:32.061Z,3.30
2019-05-14T00:56:02.108Z,3.10
2019-05-14T00:58:31.021Z,3.10
2019-05-14T01:00:58.778Z,3.17
2019-05-14T01:03:27.014Z,3.23
2019-05-14T01:05:54.803Z,3.17
2019-05-14T01:08:22.408Z,2.80
2019-05-14T01:10:51.185Z,2.80
2019-05-14T01:13:19.012Z,2.70
2019-05-14T01:15:46.980Z,2.73
2019-05-14T01:18:14.784Z,3.03
2019-05-14T01:20:42.438Z,3.00
2019-05-14T01:23:11.512Z,2.80
2019-05-14T01:25:39.200Z,3.00
2019-05-14T01:28:07.029Z,3.00
2019-05-14T01:30:34.605Z,3.17
2019-05-14T01:33:02.230Z,2.93
2019-05-14T01:35:31.556Z,3.97
2019-05-14T01:37:59.655Z,3.60
2019-05-14T01:40:27.368Z,6.07
2019-05-14T01:42:55.347Z,4.40
2019-05-14T01:45:27.880Z,3.40
2019-05-14T01:47:52.465Z,7.90
2019-05-14T01:50:21.596Z,4.00
2019-05-14T01:52:51.840Z,3.47
2019-05-14T01:55:21.779Z,4.40
2019-05-14T01:57:51.565Z,4.10
2019-05-14T02:00:21.870Z,6.67
2019-05-14T02:02:49.487Z,10.57
2019-05-14T02:05:17.237Z,4.23
2019-05-14T02:07:45.008Z,3.77
2019-05-14T02:10:12.550Z,3.63
2019-05-14T02:12:42.314Z,3.33
2019-05-14T02:15:12.048Z,3.40
2019-05-14T02:17:41.386Z,4.83
2019-05-14T02:20:12.364Z,3.87
2019-05-14T02:22:41.687Z,3.73
2019-05-14T02:25:11.668Z,3.63
2019-05-14T02:27:41.211Z,3.47
2019-05-14T02:30:09.204Z,3.40
2019-05-14T02:32:40.050Z,3.40
2019-05-14T02:35:09.610Z,4.10
2019-05-14T02:37:39.271Z,5.33
2019-05-14T02:40:06.136Z,3.97
2019-05-14T02:42:33.859Z,4.00
2019-05-14T02:45:01.591Z,3.30
2019-05-14T02:47:29.959Z,3.63
2019-05-14T02:49:59.013Z,4.33
2019-05-14T02:52:29.186Z,4.30
2019-05-14T02:54:59.497Z,4.40
2019-05-14T02:57:25.847Z,3.80
2019-05-14T02:59:53.515Z,3.40
2019-05-14T03:02:21.167Z,3.83
2019-05-14T03:04:49.876Z,3.37
2019-05-14T03:07:19.391Z,3.90
2019-05-14T03:09:50.015Z,3.50
2019-05-14T03:12:19.396Z,4.40
2019-05-14T03:14:49.481Z,4.00
2019-05-14T03:17:19.575Z,3.80
2019-05-14T03:19:49.303Z,3.63
2019-05-14T03:22:15.353Z,3.70
2019-05-14T03:24:43.033Z,3.63
2019-05-14T03:27:10.859Z,3.50
2019-05-14T03:29:39.830Z,3.50
2019-05-14T03:32:12.773Z,3.53
2019-05-14T03:34:42.804Z,3.70
2019-05-14T03:37:13.157Z,6.20
2019-05-14T03:39:39.434Z,3.90
2019-05-14T03:42:09.208Z,3.10
2019-05-14T03:44:39.543Z,2.87
2019-05-14T03:47:10.002Z,2.90
2019-05-14T03:49:39.387Z,2.87
2019-05-14T03:52:09.304Z,2.80
2019-05-14T03:54:35.842Z,4.73
2019-05-14T03:57:03.575Z,4.73
2019-05-14T03:59:31.294Z,4.00
2019-05-14T04:01:59.882Z,3.10
2019-05-14T04:04:29.910Z,3.47
2019-05-14T04:07:00.002Z,2.50
2019-05-14T04:09:31.980Z,2.30
2019-05-14T04:12:02.077Z,2.77
2019-05-14T04:14:31.843Z,2.10
2019-05-14T04:17:09.898Z,2.70
2019-05-14T04:19:32.696Z,2.13
2019-05-14T04:22:05.610Z,2.20
2019-05-14T04:24:41.472Z,2.30
2019-05-14T04:27:13.065Z,2.20
2019-05-14T04:29:40.675Z,2.20
2019-05-14T04:32:09.568Z,2.47
2019-05-14T04:34:39.914Z,2.33
2019-05-14T04:37:09.777Z,2.90
2019-05-14T04:39:39.597Z,6.00
2019-05-14T04:42:09.561Z,3.60
2019-05-14T04:44:40.357Z,3.03
2019-05-14T04:47:22.786Z,3.40
2019-05-14T04:49:39.919Z,3.17
2019-05-14T04:52:10.027Z,3.00
2019-05-14T04:54:39.400Z,2.53
2019-05-14T04:57:09.895Z,2.50
2019-05-14T04:59:39.345Z,2.10
2019-05-14T05:02:09.207Z,2.50
2019-05-14T05:04:35.979Z,2.20
2019-05-14T05:07:03.750Z,2.30
2019-05-14T05:09:32.377Z,2.10
2019-05-14T05:12:00.092Z,2.50
2019-05-14T05:14:29.647Z,2.40
2019-05-14T05:16:59.661Z,2.40
2019-05-14T05:19:29.090Z,2.40
2019-05-14T05:21:58.681Z,2.40
2019-05-14T05:24:28.735Z,2.70
2019-05-14T05:26:58.553Z,2.60
2019-05-14T05:29:28.555Z,4.70
2019-05-14T05:31:56.454Z,3.80
2019-05-14T05:34:28.154Z,3.03
2019-05-14T05:36:55.480Z,2.97
2019-05-14T05:39:23.193Z,2.50
2019-05-14T05:41:50.975Z,2.80
2019-05-14T05:44:18.834Z,2.43
2019-05-14T05:46:49.167Z,3.00
2019-05-14T05:49:18.717Z,2.53
2019-05-14T05:51:48.367Z,2.80
2019-05-14T05:54:18.512Z,2.93
2019-05-14T05:56:48.034Z,3.20
2019-05-14T05:59:18.759Z,2.77
2019-05-14T06:01:46.574Z,2.93
2019-05-14T06:04:18.123Z,2.87
2019-05-14T06:06:48.042Z,2.53
2019-05-14T06:09:15.153Z,2.63
2019-05-14T06:11:43.171Z,2.40
2019-05-14T06:14:11.450Z,2.47
2019-05-14T06:16:39.262Z,2.67
2019-05-14T06:19:08.271Z,2.80
2019-05-14T06:21:36.264Z,2.30
2019-05-14T06:24:04.256Z,2.70
2019-05-14T06:26:32.222Z,2.67
2019-05-14T06:29:00.035Z,2.60
2019-05-14T06:31:29.210Z,3.10
2019-05-14T06:33:59.215Z,2.67
2019-05-14T06:36:28.926Z,2.20
2019-05-14T06:38:58.431Z,2.80
2019-05-14T06:41:28.181Z,3.17
2019-05-14T06:43:55.323Z,3.30
2019-05-14T06:46:23.032Z,2.90
2019-05-14T06:48:50.751Z,3.30
2019-05-14T06:51:19.884Z,2.87
2019-05-14T06:53:49.935Z,2.70
2019-05-14T06:56:21.057Z,2.97
2019-05-14T06:58:49.078Z,3.33
2019-05-14T07:01:18.557Z,3.47
2019-05-14T07:03:48.697Z,5.07
2019-05-14T07:06:18.371Z,3.67
2019-05-14T07:08:48.125Z,3.40
2019-05-14T07:11:15.182Z,2.77
2019-05-14T07:13:43.683Z,4.20
2019-05-14T07:16:12.718Z,2.43
2019-05-14T07:18:52.823Z,2.57
2019-05-14T07:21:10.705Z,2.47
2019-05-14T07:23:38.735Z,2.17
2019-05-14T07:26:08.430Z,2.10
2019-05-14T07:28:41.643Z,2.27
2019-05-14T07:31:05.815Z,2.23
2019-05-14T07:33:33.553Z,2.67
2019-05-14T07:36:01.461Z,2.40
2019-05-14T07:38:29.496Z,2.10
2019-05-14T07:40:58.559Z,2.00
2019-05-14T07:43:28.728Z,2.33
2019-05-14T07:45:58.255Z,1.90
2019-05-14T07:48:28.671Z,2.17
2019-05-14T07:50:56.053Z,2.33
2019-05-14T07:53:36.007Z,2.40
2019-05-14T07:55:54.123Z,2.80
2019-05-14T07:58:23.150Z,2.30
2019-05-14T08:00:50.819Z,2.07
2019-05-14T08:03:19.074Z,2.20
2019-05-14T08:05:48.271Z,2.50
2019-05-14T08:08:18.572Z,1.90
2019-05-14T08:10:48.481Z,1.80
2019-05-14T08:13:15.756Z,1.97
2019-05-14T08:15:43.647Z,1.90
2019-05-14T08:18:11.273Z,2.13
2019-05-14T08:20:38.985Z,3.30
2019-05-14T08:23:08.773Z,3.80
2019-05-14T08:25:38.808Z,1.90
2019-05-14T08:28:08.126Z,2.00
2019-05-14T08:30:38.929Z,1.80
2019-05-14T08:33:08.765Z,1.63
2019-05-14T08:35:36.247Z,4.23
2019-05-14T08:38:11.323Z,6.57
2019-05-14T08:40:37.877Z,2.00
2019-05-14T08:43:05.706Z,2.17
2019-05-14T08:45:33.335Z,2.30
2019-05-14T08:48:01.037Z,1.90
2019-05-14T08:50:28.809Z,1.97
2019-05-14T08:52:58.294Z,1.93
2019-05-14T08:55:26.045Z,1.67
2019-05-14T08:57:54.453Z,2.10
2019-05-14T09:00:22.153Z,1.80
2019-05-14T09:02:50.939Z,2.60
2019-05-14T09:05:18.742Z,2.20
2019-05-14T09:07:48.869Z,2.80
2019-05-14T09:10:15.931Z,2.50
2019-05-14T09:12:43.580Z,2.10
2019-05-14T09:15:11.510Z,1.73
2019-05-14T09:17:39.487Z,1.70
2019-05-14T09:20:11.063Z,2.10
2019-05-14T09:22:39.690Z,2.07
2019-05-14T09:25:08.481Z,1.70
2019-05-14T09:27:38.795Z,2.30
2019-05-14T09:30:09.338Z,3.00
2019-05-14T09:32:38.762Z,2.80
2019-05-14T09:35:09.661Z,1.77
2019-05-14T09:37:36.277Z,1.90
2019-05-14T09:40:04.895Z,1.70
2019-05-14T09:42:32.602Z,1.73
2019-05-14T09:45:00.302Z,1.83
2019-05-14T09:47:28.311Z,1.80
2019-05-14T09:49:58.282Z,1.60
2019-05-14T09:52:25.881Z,1.67
2019-05-14T09:54:53.499Z,1.40
2019-05-14T09:57:21.010Z,1.50
2019-05-14T09:59:48.839Z,2.33
2019-05-14T10:02:16.871Z,1.80
2019-05-14T10:04:48.665Z,1.67
2019-05-14T10:07:16.087Z,1.57
2019-05-14T10:09:43.675Z,1.70
2019-05-14T10:12:12.626Z,1.60
2019-05-14T10:14:40.471Z,1.33
2019-05-14T10:17:08.123Z,1.73
2019-05-14T10:19:38.884Z,1.97
2019-05-14T10:22:05.224Z,2.57
2019-05-14T10:24:33.015Z,1.80
2019-05-14T10:27:01.101Z,1.90
2019-05-14T10:29:28.958Z,2.10
2019-05-14T10:31:59.030Z,2.20
2019-05-14T10:34:28.561Z,1.70
2019-05-14T10:36:55.544Z,1.60
2019-05-14T10:39:23.338Z,2.33
2019-05-14T10:41:51.396Z,1.50
2019-05-14T10:44:19.316Z,2.20
2019-05-14T10:46:47.019Z,2.30
2019-05-14T10:49:22.706Z,1.90
2019-05-14T10:51:44.582Z,1.83
2019-05-14T10:54:22.289Z,1.80
2019-05-14T10:56:41.705Z,2.20
2019-05-14T10:59:09.610Z,3.70
2019-05-14T11:01:40.528Z,3.10
2019-05-14T11:04:08.724Z,1.60
2019-05-14T11:06:38.615Z,1.40
2019-05-14T11:09:08.879Z,1.47
2019-05-14T11:11:38.088Z,1.50
2019-05-14T11:14:05.572Z,1.20
2019-05-14T11:16:33.588Z,1.30
2019-05-14T11:19:01.566Z,1.50
2019-05-14T11:21:30.301Z,1.43
2019-05-14T11:23:58.659Z,1.73
2019-05-14T11:26:29.177Z,1.40
2019-05-14T11:28:58.336Z,1.43
2019-05-14T11:31:25.430Z,2.47
2019-05-14T11:33:54.082Z,2.17
2019-05-14T11:36:22.102Z,1.20
2019-05-14T11:38:51.035Z,1.40
2019-05-14T11:41:19.117Z,1.40
2019-05-14T11:43:49.209Z,1.40
2019-05-14T11:46:26.035Z,1.72
2019-05-14T11:48:48.943Z,1.40
2019-05-14T11:51:18.980Z,1.60
2019-05-14T11:53:49.222Z,1.50
2019-05-14T11:56:19.154Z,1.80
2019-05-14T11:58:46.508Z,1.82
2019-05-14T12:01:14.117Z,1.60
2019-05-14T12:03:41.845Z,1.40
2019-05-14T12:06:10.053Z,1.52
2019-05-14T12:08:41.853Z,1.52
2019-05-14T12:11:08.749Z,1.57
2019-05-14T12:13:39.172Z,1.50
2019-05-14T12:16:08.359Z,1.40
2019-05-14T12:18:41.375Z,1.60
2019-05-14T12:21:08.925Z,1.40
2019-05-14T12:23:36.418Z,1.50
2019-05-14T12:26:04.365Z,1.70
2019-05-14T12:28:32.144Z,1.55
2019-05-14T12:30:59.639Z,1.50
2019-05-14T12:33:30.749Z,1.40
2019-05-14T12:36:00.250Z,1.70
2019-05-14T12:38:29.531Z,1.52
2019-05-14T12:40:58.284Z,1.70
2019-05-14T12:43:28.165Z,1.70
2019-05-14T12:45:59.078Z,1.50
2019-05-14T12:48:25.740Z,1.70
2019-05-14T12:50:54.474Z,1.70
2019-05-14T12:53:22.104Z,5.15
2019-05-14T12:55:50.131Z,1.90
2019-05-14T12:58:20.222Z,1.82
2019-05-14T13:00:48.628Z,1.65
2019-05-14T13:03:18.868Z,2.33
2019-05-14T13:05:48.936Z,2.12
2019-05-14T13:08:18.439Z,2.30
2019-05-14T13:10:45.772Z,1.92
2019-05-14T13:13:13.416Z,1.90
2019-05-14T13:15:42.089Z,2.00
2019-05-14T13:18:09.652Z,2.17
2019-05-14T13:20:38.984Z,1.90
2019-05-14T13:23:09.802Z,2.10
2019-05-14T13:25:39.184Z,1.70
2019-05-14T13:28:08.872Z,1.80
2019-05-14T13:30:37.660Z,1.90
2019-05-14T13:33:08.632Z,1.60
2019-05-14T13:35:35.520Z,2.00
2019-05-14T13:38:03.527Z,2.20
2019-05-14T13:40:31.842Z,1.95
2019-05-14T13:42:59.409Z,2.60
2019-05-14T13:45:29.693Z,2.20
2019-05-14T13:47:59.124Z,1.82
2019-05-14T13:50:29.258Z,1.70
2019-05-14T13:53:03.131Z,1.77
2019-05-14T13:55:28.025Z,1.77
2019-05-14T13:57:55.691Z,2.20
2019-05-14T14:00:24.074Z,1.98
2019-05-14T14:02:52.125Z,2.30
2019-05-14T14:05:20.608Z,1.90
2019-05-14T14:07:48.739Z,1.98
2019-05-14T14:10:16.930Z,2.25
2019-05-14T14:12:45.077Z,2.62
2019-05-14T14:15:13.036Z,2.85
2019-05-14T14:17:40.717Z,2.17
2019-05-14T14:20:11.871Z,1.70
2019-05-14T14:22:40.422Z,5.15
2019-05-14T14:25:09.151Z,2.72
2019-05-14T14:27:40.819Z,1.40
2019-05-14T14:30:09.342Z,1.80
2019-05-14T14:32:36.515Z,1.60
2019-05-14T14:35:04.177Z,1.90
2019-05-14T14:37:32.151Z,2.60
2019-05-14T14:39:59.868Z,2.67
2019-05-14T14:42:29.752Z,1.90
2019-05-14T14:44:57.615Z,2.60
2019-05-14T14:47:25.562Z,2.72
2019-05-14T14:49:53.708Z,2.90
2019-05-14T14:52:21.882Z,2.70
2019-05-14T14:54:49.959Z,2.53
2019-05-14T14:57:19.946Z,2.53
2019-05-14T14:59:48.496Z,3.40
2019-05-14T15:02:19.447Z,3.30
2019-05-14T15:04:46.044Z,3.12
2019-05-14T15:07:14.010Z,3.10
2019-05-14T15:09:42.651Z,2.90
2019-05-14T15:12:10.324Z,3.05
2019-05-14T15:14:39.527Z,2.70
2019-05-14T15:17:09.565Z,3.02
2019-05-14T15:19:39.498Z,2.80
2019-05-14T15:22:08.820Z,2.90
2019-05-14T15:24:36.336Z,2.58
2019-05-14T15:27:08.868Z,2.70
2019-05-14T15:29:34.270Z,2.40
2019-05-14T15:32:02.136Z,2.50
2019-05-14T15:34:30.558Z,2.70
2019-05-14T15:36:59.883Z,2.53
2019-05-14T15:39:30.216Z,2.15
2019-05-14T15:42:04.000Z,2.10
2019-05-14T15:44:44.177Z,2.22
2019-05-14T15:46:58.739Z,2.02
2019-05-14T15:49:28.351Z,2.20
2019-05-14T15:51:55.957Z,2.40
2019-05-14T15:54:39.788Z,2.37
2019-05-14T15:56:53.872Z,2.20
2019-05-14T15:59:21.482Z,2.40
2019-05-14T16:01:49.158Z,3.23
2019-05-14T16:04:16.983Z,2.30
2019-05-14T16:06:44.667Z,2.27
2019-05-14T16:09:12.596Z,2.40
2019-05-14T16:11:40.596Z,2.40
2019-05-14T16:14:10.215Z,2.55
2019-05-14T16:16:39.210Z,2.77
2019-05-14T16:19:09.339Z,2.47
2019-05-14T16:21:40.415Z,2.80
2019-05-14T16:24:08.440Z,2.80
2019-05-14T16:26:36.282Z,2.77
2019-05-14T16:29:04.013Z,2.83
2019-05-14T16:31:31.869Z,2.90
2019-05-14T16:33:59.972Z,2.90
2019-05-14T16:36:28.861Z,3.00
2019-05-14T16:38:58.456Z,4.10
2019-05-14T16:41:29.003Z,7.00
2019-05-14T16:43:58.562Z,3.30
2019-05-14T16:46:25.990Z,3.30
2019-05-14T16:48:53.991Z,3.10
2019-05-14T16:51:21.937Z,3.00
2019-05-14T16:53:49.572Z,3.00
2019-05-14T16:56:19.244Z,2.87
2019-05-14T16:58:47.124Z,2.98
2019-05-14T17:01:14.835Z,2.80
2019-05-14T17:03:42.647Z,2.70
2019-05-14T17:06:10.548Z,3.00
2019-05-14T17:08:39.502Z,3.00
2019-05-14T17:11:08.900Z,2.70
2019-05-14T17:13:38.124Z,2.83
2019-05-14T17:16:08.592Z,2.87
2019-05-14T17:18:35.696Z,4.80
2019-05-14T17:21:03.458Z,7.62
2019-05-14T17:23:31.594Z,7.15
2019-05-14T17:25:59.463Z,4.60
2019-05-14T17:28:28.641Z,3.70
2019-05-14T17:30:56.721Z,3.30
2019-05-14T17:33:24.406Z,3.30
2019-05-14T17:35:52.045Z,3.25
2019-05-14T17:38:19.994Z,3.50
2019-05-14T17:40:48.852Z,7.90
2019-05-14T17:43:19.033Z,4.50
2019-05-14T17:45:48.209Z,3.73
2019-05-14T17:48:18.200Z,2.75
2019-05-14T17:50:45.441Z,2.80
2019-05-14T17:53:13.023Z,2.67
2019-05-14T17:55:46.663Z,2.90
2019-05-14T17:58:13.097Z,2.92
2019-05-14T18:00:40.106Z,2.60
2019-05-14T18:03:11.224Z,2.60
2019-05-14T18:05:41.604Z,2.20
2019-05-14T18:08:09.446Z,2.60
2019-05-14T18:10:39.113Z,3.22
2019-05-14T18:13:09.257Z,4.25
2019-05-14T18:15:39.299Z,3.22
2019-05-14T18:18:08.868Z,2.55
2019-05-14T18:20:39.181Z,2.55
2019-05-14T18:23:11.459Z,4.67
2019-05-14T18:25:38.693Z,2.60
2019-05-14T18:28:09.292Z,2.30
2019-05-14T18:30:38.662Z,1.70
2019-05-14T18:33:07.980Z,4.57
2019-05-14T18:35:43.999Z,3.23
2019-05-14T18:38:08.114Z,2.00
2019-05-14T18:40:39.588Z,1.87
2019-05-14T18:43:08.604Z,1.63
2019-05-14T18:45:38.748Z,2.00
2019-05-14T18:48:15.719Z,1.70
2019-05-14T18:50:48.429Z,1.77
2019-05-14T18:53:16.120Z,1.97
2019-05-14T18:55:44.134Z,1.90
2019-05-14T18:58:12.093Z,1.90
2019-05-14T19:00:40.711Z,1.87
2019-05-14T19:03:14.207Z,1.90
2019-05-14T19:05:44.345Z,2.80
2019-05-14T19:08:12.587Z,3.93
2019-05-14T19:10:40.902Z,2.83
2019-05-14T19:13:09.822Z,2.40
2019-05-14T19:15:39.093Z,2.40
2019-05-14T19:18:09.088Z,2.30
2019-05-14T19:20:39.042Z,2.57
2019-05-14T19:23:08.137Z,6.30
2019-05-14T19:25:36.167Z,4.37
2019-05-14T19:28:04.409Z,6.92
2019-05-14T19:30:33.534Z,6.22
2019-05-14T19:33:01.573Z,3.60
2019-05-14T19:35:31.541Z,2.83
2019-05-14T19:38:00.607Z,2.90
2019-05-14T19:40:28.366Z,2.40
2019-05-14T19:42:56.239Z,2.33
2019-05-14T19:45:24.623Z,2.75
2019-05-14T19:47:53.437Z,4.67
2019-05-14T19:50:21.285Z,7.83
2019-05-14T19:52:49.653Z,10.78
2019-05-14T19:55:18.867Z,5.37
2019-05-14T19:57:48.960Z,3.22
2019-05-14T20:00:23.271Z,3.33
2019-05-14T20:02:51.180Z,3.30
2019-05-14T20:05:20.040Z,3.00
2019-05-14T20:07:49.071Z,2.50
2019-05-14T20:10:16.912Z,3.15
2019-05-14T20:12:44.658Z,5.22
2019-05-14T20:15:13.610Z,3.40
2019-05-14T20:17:41.775Z,2.45
2019-05-14T20:20:09.735Z,2.47
2019-05-14T20:22:39.342Z,2.15
2019-05-14T20:25:07.804Z,2.20
2019-05-14T20:27:35.438Z,2.33
2019-05-14T20:30:04.014Z,1.90
2019-05-14T20:32:33.239Z,2.33
2019-05-14T20:35:01.134Z,2.30
2019-05-14T20:37:29.210Z,2.17
2019-05-14T20:39:59.056Z,2.25
2019-05-14T20:42:28.964Z,2.47
2019-05-14T20:44:56.659Z,2.60
2019-05-14T20:47:24.866Z,2.27
2019-05-14T20:49:52.590Z,2.45
2019-05-14T20:52:20.545Z,2.50
2019-05-14T20:54:48.549Z,2.65
2019-05-14T20:57:24.335Z,2.50
2019-05-14T20:59:48.267Z,2.33
2019-05-14T21:02:18.610Z,2.50
2019-05-14T21:04:53.494Z,2.67
2019-05-14T21:07:16.122Z,2.50
2019-05-14T21:09:43.779Z,2.40
2019-05-14T21:12:11.934Z,2.77
2019-05-14T21:14:41.378Z,2.60
2019-05-14T21:17:09.725Z,2.60
2019-05-14T21:19:38.091Z,2.80
2019-05-14T21:22:08.226Z,2.47
2019-05-14T21:24:38.907Z,2.50
2019-05-14T21:27:05.442Z,2.55
2019-05-14T21:29:32.974Z,2.42
2019-05-14T21:32:01.616Z,2.58
2019-05-14T21:34:29.389Z,2.65
2019-05-14T21:36:58.499Z,2.55
2019-05-14T21:39:27.469Z,2.37
2019-05-14T21:41:55.201Z,2.40
2019-05-14T21:44:23.303Z,2.50
2019-05-14T21:46:50.994Z,2.20
2019-05-14T21:49:19.028Z,2.30
2019-05-14T21:51:48.352Z,2.17
2019-05-14T21:54:18.951Z,2.37
2019-05-14T21:56:49.383Z,2.10
2019-05-14T21:59:18.355Z,2.30
2019-05-14T22:01:48.062Z,2.15
2019-05-14T22:04:18.452Z,2.12
2019-05-14T22:06:45.464Z,1.95
2019-05-14T22:09:13.577Z,2.05
2019-05-14T22:11:41.242Z,2.17
2019-05-14T22:14:08.917Z,1.92
2019-05-14T22:16:38.099Z,1.97
2019-05-14T22:19:08.319Z,2.00
2019-05-14T22:21:35.723Z,1.90
2019-05-14T22:24:03.381Z,1.90
2019-05-14T22:26:31.309Z,1.87
2019-05-14T22:28:58.862Z,1.80
2019-05-14T22:31:28.749Z,1.85
2019-05-14T22:33:58.146Z,1.90
2019-05-14T22:36:25.722Z,1.90
2019-05-14T22:38:53.813Z,2.10
2019-05-14T22:41:21.704Z,1.87
2019-05-14T22:43:51.447Z,1.95
2019-05-14T22:46:18.802Z,1.70
2019-05-14T22:48:51.317Z,1.80
2019-05-14T22:51:18.885Z,1.90
2019-05-14T22:53:46.564Z,1.75
2019-05-14T22:56:14.217Z,1.80
2019-05-14T22:58:41.800Z,2.02
2019-05-14T23:01:14.830Z,1.80
2019-05-14T23:03:39.690Z,1.90
2019-05-14T23:06:09.035Z,1.85
2019-05-14T23:08:39.038Z,1.80
2019-05-14T23:11:08.502Z,1.90
2019-05-14T23:13:35.830Z,1.80
2019-05-14T23:16:03.359Z,2.00
2019-05-14T23:18:30.981Z,1.95
2019-05-14T23:20:59.255Z,2.00
2019-05-14T23:23:28.385Z,2.72
2019-05-14T23:25:58.793Z,3.70
2019-05-14T23:28:38.831Z,3.00
2019-05-14T23:30:55.195Z,2.37
2019-05-14T23:33:22.840Z,2.00
2019-05-14T23:35:50.806Z,2.05
2019-05-14T23:38:19.252Z,1.90
2019-05-14T23:40:49.133Z,6.58
2019-05-14T23:43:18.575Z,4.87
2019-05-14T23:45:46.657Z,5.03
2019-05-14T23:48:14.633Z,2.70
2019-05-14T23:50:42.291Z,2.00
2019-05-14T23:53:09.935Z,2.02
2019-05-14T23:55:38.591Z,1.95
2019-05-14T23:58:08.301Z,2.08
